Date,TemperatureHighF,TemperatureAvgF,TemperatureLowF,DewpointHighF,DewpointAvgF,DewpointLowF,HumidityHigh,HumidityAvg,HumidityLow,PressureMaxIn,PressureMinIn,WindSpeedMaxMPH,WindSpeedAvgMPH,GustSpeedMaxMPH,PrecipitationSumIn
2012-1-1,29.3,24.6,14.2,27.3,21.0,8.9,93,86,76,30.03,29.63,16,2,20,0.00
2012-1-2,15.2,10.7,-1.9,9.2,5.2,-6.0,84,78,70,30.48,30.03,14,2,20,0.00
2012-1-3,16.2,5.1,-8.6,5.5,-1.9,-13.1,92,73,52,30.47,29.92,9,0,10,0.00
2012-1-4,27.7,17.9,7.1,21.1,13.5,3.2,90,83,74,30.04,29.90,6,0,9,0.00
2012-1-5,37.8,26.8,15.0,30.3,22.5,12.1,91,84,73,30.00,29.51,7,0,10,0.00
2012-1-6,42.2,34.3,30.1,30.2,27.6,24.1,86,77,58,29.69,29.51,11,1,15,0.01
2012-1-7,33.3,25.8,17.8,27.7,19.3,13.0,92,76,66,30.23,29.67,10,1,13,0.00
2012-1-8,31.8,23.4,17.4,22.8,18.5,14.6,91,82,63,30.30,30.09,7,0,7,0.00
2012-1-9,39.2,30.3,22.0,28.0,24.4,19.0,90,79,63,30.09,29.75,15,1,21,0.00
2012-1-10,41.4,28.0,15.2,32.8,23.8,12.6,93,85,67,29.99,29.68,6,0,11,0.01
2012-1-11,42.4,32.6,25.4,33.9,28.9,22.4,93,86,71,29.68,29.55,6,0,11,0.24
2012-1-12,25.4,17.0,13.3,22.6,13.6,9.9,89,86,83,29.70,29.60,11,3,16,0.00
2012-1-13,15.1,13.0,7.7,11.4,8.2,2.8,86,81,74,30.06,29.70,10,2,16,0.00
2012-1-14,12.5,8.4,6.0,6.4,3.5,1.2,84,80,74,30.22,30.06,3,0,6,0.00
2012-1-15,27.0,19.5,10.6,21.9,15.2,6.4,87,83,79,30.25,29.87,5,0,11,0.00
2012-1-16,31.2,26.6,23.3,25.9,22.5,18.9,90,85,80,29.92,29.76,7,1,13,0.01
2012-1-17,23.3,14.7,7.4,18.9,9.6,1.7,87,80,71,30.23,29.86,9,2,17,0.00
2012-1-18,16.5,5.6,-11.4,11.4,-1.0,-16.1,88,74,58,30.26,29.63,7,0,13,0.00
2012-1-19,11.0,-7.5,-18.2,5.1,-14.9,-24.5,83,69,56,30.26,29.68,10,1,17,0.00
2012-1-20,6.1,-6.3,-20.9,-6.0,-14.8,-26.3,78,67,49,30.32,30.25,3,0,4,0.00
2012-1-21,17.7,2.3,-16.6,10.3,-5.6,-21.9,84,70,52,30.37,30.04,5,0,10,0.00
2012-1-22,26.4,21.9,15.6,22.5,18.4,10.3,98,86,77,30.04,29.53,5,0,12,0.00
2012-1-23,29.9,24.7,20.2,26.9,22.2,16.6,100,90,85,29.76,29.37,10,1,18,0.00
2012-1-24,23.9,17.4,7.6,17.8,13.4,4.3,92,84,76,30.34,29.76,7,1,13,0.00
2012-1-25,31.8,23.1,10.1,26.4,19.3,7.0,90,85,79,30.36,29.95,4,0,10,0.00
2012-1-26,30.5,28.2,25.5,27.8,25.1,22.0,92,88,82,29.95,29.63,11,1,15,0.00
2012-1-27,36.1,25.6,12.2,26.8,19.6,9.6,91,79,48,29.83,29.67,11,1,12,0.00
2012-1-28,26.2,18.4,12.2,21.9,13.8,9.1,90,82,74,29.94,29.75,16,2,21,0.00
2012-1-29,16.8,11.0,-3.4,11.3,4.4,-7.8,92,75,60,30.21,29.92,9,1,12,0.00
2012-1-30,27.5,15.9,-3.5,20.1,11.2,-7.9,92,82,72,30.18,29.77,3,0,7,0.00
2012-1-31,39.7,30.6,20.8,32.1,26.1,18.1,91,83,73,29.83,29.60,10,1,14,0.07
2012-2-1,35.7,29.7,21.3,29.6,25.6,18.8,93,85,76,30.14,29.83,6,0,14,0.04
2012-2-2,31.5,28.8,25.2,28.5,26.6,23.2,100,91,88,30.42,30.13,5,0,5,0.00
2012-2-3,36.0,28.9,16.4,27.7,24.0,13.5,91,82,64,30.51,30.41,6,0,7,0.07
2012-2-4,42.7,25.9,10.8,26.3,18.3,7.4,92,75,47,30.45,30.23,6,0,16,0.09
2012-2-5,37.9,28.6,23.0,26.5,23.1,19.6,92,80,60,30.33,30.10,7,1,13,0.03
2012-2-6,33.5,26.5,18.4,27.7,22.8,16.0,100,86,77,30.30,30.05,8,1,12,0.00
2012-2-7,26.0,17.2,3.6,21.0,9.2,-1.5,83,71,48,30.52,30.30,9,2,12,0.00
2012-2-8,29.3,13.8,1.0,4.4,-0.7,-6.0,83,56,27,30.49,30.20,10,1,14,0.00
2012-2-9,33.4,20.4,7.4,21.1,9.9,1.5,87,65,40,30.20,29.89,12,1,14,0.00
2012-2-10,24.4,10.8,1.8,21.5,4.4,-4.8,89,75,58,30.38,29.88,14,3,17,0.00
2012-2-11,13.8,6.4,-0.6,1.2,-3.0,-7.7,77,65,51,30.46,30.32,11,2,17,0.00
2012-2-12,29.8,14.2,2.4,7.8,-0.2,-6.4,66,54,33,30.35,30.11,11,2,16,0.00
2012-2-13,29.2,16.7,-1.4,20.7,7.3,-6.8,89,67,42,30.11,29.77,6,0,7,0.00
2012-2-14,29.5,25.9,21.4,24.4,22.0,18.9,91,85,77,29.88,29.75,3,0,7,0.00
2012-2-15,38.1,30.7,26.6,29.9,27.0,23.6,91,86,71,29.99,29.87,4,0,6,0.07
2012-2-16,35.9,30.3,23.1,28.5,23.7,17.4,92,77,57,30.04,29.94,15,1,15,0.04
2012-2-17,32.6,24.9,17.4,27.7,20.4,13.6,92,83,73,30.08,29.99,4,0,6,0.03
2012-2-18,30.2,21.1,10.8,17.8,13.5,6.1,88,73,52,30.25,30.07,7,0,11,0.01
2012-2-19,36.1,19.1,2.7,20.7,11.2,-0.8,92,73,50,30.27,30.15,4,0,7,0.02
2012-2-20,37.7,24.7,9.2,22.8,15.8,5.9,89,70,44,30.25,29.83,7,0,8,0.02
2012-2-21,33.0,30.4,28.2,30.3,26.7,22.8,91,86,78,29.83,29.41,11,1,18,0.01
2012-2-22,31.0,27.4,22.7,24.9,21.3,18.0,92,78,69,29.44,29.36,13,2,14,0.00
2012-2-23,33.4,24.5,14.6,22.1,17.6,11.2,88,75,60,29.69,29.44,4,0,6,0.01
2012-2-24,29.6,23.7,17.5,22.6,18.9,12.7,86,82,69,29.90,29.64,5,0,11,0.00
2012-2-25,27.2,18.6,12.4,15.0,11.6,8.5,85,74,57,30.27,29.90,8,1,13,0.01
2012-2-26,33.6,25.4,12.0,28.4,19.2,7.6,85,77,61,30.27,29.77,10,1,11,0.00
2012-2-27,29.6,23.7,11.5,23.9,16.8,7.4,86,75,58,30.48,29.84,15,2,18,0.01
2012-2-28,29.5,23.2,11.7,26.1,19.4,7.8,92,85,77,30.45,29.93,3,0,7,0.00
2012-2-29,31.3,29.1,26.6,29.5,27.3,24.3,94,93,91,29.93,29.39,10,2,11,0.00
2012-3-1,30.4,27.7,22.5,27.7,25.3,20.5,93,91,86,29.82,29.60,4,0,5,0.00
2012-3-2,32.7,29.6,24.8,29.5,27.2,22.9,94,91,84,29.81,29.45,3,0,3,0.01
2012-3-3,29.6,24.1,14.4,27.8,19.8,10.6,93,83,71,29.84,29.43,8,1,13,0.00
2012-3-4,22.2,14.7,3.4,13.7,9.0,-0.3,87,78,66,30.12,29.84,6,1,6,0.00
2012-3-5,32.4,19.2,2.2,21.7,13.3,-1.5,88,78,56,30.27,30.05,9,1,12,0.00
2012-3-6,44.3,32.7,18.8,36.5,27.2,16.0,91,80,65,30.05,29.68,6,0,9,0.37
2012-3-7,44.7,40.0,31.8,42.1,36.4,28.2,94,87,77,29.75,29.53,7,1,14,0.12
2012-3-8,33.4,27.6,21.2,28.4,19.6,13.3,90,73,47,30.18,29.75,13,2,23,0.01
2012-3-9,26.8,21.2,13.4,12.8,9.4,4.4,80,61,39,30.56,30.18,10,1,19,0.00
2012-3-10,51.2,37.0,23.3,32.6,24.0,10.4,73,60,44,30.38,29.92,10,1,17,0.00
2012-3-11,56.7,44.1,34.6,35.4,31.3,28.0,78,62,42,30.06,29.93,12,1,13,0.00
2012-3-12,46.4,41.6,38.5,45.2,38.8,30.3,97,90,68,29.93,29.60,6,1,11,0.39
2012-3-13,53.0,41.6,33.2,40.9,30.0,22.2,95,67,31,30.03,29.69,9,2,15,0.01
2012-3-14,62.3,46.1,30.7,51.9,39.2,26.5,93,78,60,29.99,29.76,6,0,7,0.00
2012-3-15,58.6,46.7,37.9,40.0,33.7,29.0,95,63,40,30.04,29.88,6,1,6,0.00
2012-3-16,65.9,47.7,31.7,50.9,40.0,28.5,91,76,55,30.08,29.89,5,0,5,0.00
2012-3-17,74.7,59.8,49.3,60.6,53.8,47.0,96,82,57,29.89,29.79,10,1,10,0.00
2012-3-18,76.0,63.7,52.7,59.6,54.6,50.5,93,74,50,29.88,29.78,12,1,12,0.00
2012-3-19,77.1,62.4,50.8,60.0,54.6,49.1,96,77,51,29.87,21.04,9,1,12,0.00
2012-3-20,74.7,62.7,50.8,58.2,55.0,48.5,95,77,54,30.66,27.30,11,1,11,0.01
2012-3-21,72.8,62.4,48.2,56.9,52.6,46.1,94,71,55,30.04,22.42,10,1,16,0.00
2012-3-22,60.9,55.6,52.9,54.6,52.4,50.6,94,89,79,30.14,30.00,4,1,6,0.08
2012-3-23,59.4,54.7,51.2,56.2,52.7,49.8,95,93,89,30.05,29.86,4,0,4,0.03
2012-3-24,61.3,54.9,50.8,54.6,51.8,48.8,96,90,77,29.94,29.84,3,0,4,0.01
2012-3-25,53.3,43.7,28.6,50.7,33.0,20.8,94,69,31,31.07,24.56,9,2,12,0.00
2012-3-26,46.6,34.0,23.0,23.0,18.7,13.9,82,56,30,31.08,30.16,8,2,8,0.00
2012-3-27,64.8,47.6,34.0,50.7,35.5,18.3,70,63,47,30.18,29.49,19,2,23,0.01
2012-3-28,50.3,41.8,36.9,40.0,32.5,29.2,77,70,60,30.10,29.60,12,2,18,0.00
2012-3-29,47.3,38.0,29.3,30.3,27.8,25.6,89,68,48,30.18,29.96,6,1,7,0.00
2012-3-30,37.5,34.2,31.1,34.3,30.6,24.9,92,87,69,29.97,24.91,3,0,5,0.12
2012-3-31,33.2,32.7,32.3,31.1,30.7,30.2,93,92,91,29.99,29.97,1,0,4,0.25
2012-4-2,55.8,47.2,37.0,41.0,37.8,34.7,93,71,51,29.97,29.85,7,1,10,0.16
2012-4-3,56.0,45.3,34.5,41.8,36.3,26.8,94,73,43,30.07,29.81,11,2,13,0.23
2012-4-4,56.4,42.7,29.3,30.8,26.8,23.1,89,58,28,30.10,29.98,10,2,13,0.00
2012-4-5,50.0,37.9,26.2,25.5,23.6,20.5,87,59,35,30.26,30.07,10,2,11,0.00
2012-4-6,57.9,40.6,24.4,28.9,23.9,19.3,89,55,29,31.82,30.18,5,0,8,0.00
2012-4-7,62.9,46.8,30.3,43.9,32.6,25.5,92,62,31,30.21,28.33,9,1,15,0.04
2012-4-8,54.0,42.5,30.3,34.9,27.5,23.5,93,59,32,30.11,28.91,21,2,24,0.01
2012-4-9,40.5,34.2,29.3,25.2,21.2,16.4,76,59,46,30.06,29.72,13,1,18,0.00
2012-4-10,36.7,30.3,26.4,22.9,18.4,14.8,71,61,47,30.22,30.04,10,1,15,0.00
2012-4-11,49.1,36.0,27.0,30.8,25.9,19.5,83,68,46,31.38,30.22,6,1,10,0.00
2012-4-12,58.4,43.0,27.0,33.1,28.2,24.2,91,60,31,31.38,28.90,4,0,7,0.00
2012-4-13,39.2,34.9,32.5,32.0,28.5,26.1,78,77,75,30.16,30.13,0,0,2,0.00
2012-4-24,61.7,53.3,32.4,33.9,30.1,24.1,71,42,30,29.78,29.24,13,2,14,0.00
2012-4-25,48.3,44.2,41.4,42.0,35.6,25.9,93,73,48,29.75,26.27,3,0,6,0.22
2012-4-26,44.6,39.1,29.0,41.8,29.5,21.1,94,70,43,30.22,27.19,13,3,22,0.02
2012-4-27,54.3,40.3,25.2,28.8,22.4,17.4,91,54,25,31.76,29.92,7,1,9,0.00
2012-4-28,53.3,43.2,33.0,30.4,26.2,21.8,72,52,35,31.03,30.15,6,1,9,0.00
2012-4-29,62.1,46.8,28.4,37.8,28.4,25.5,93,55,25,31.80,28.69,6,1,13,0.04
2012-4-30,49.1,42.7,37.6,43.7,39.4,35.0,94,88,79,30.08,29.60,5,0,7,0.30
2012-5-1,70.9,54.5,37.3,52.7,45.5,35.7,96,74,44,29.93,28.39,11,1,14,0.00
2012-5-2,75.1,61.2,52.2,59.0,53.3,47.9,95,77,45,31.25,28.43,9,1,12,0.43
2012-5-3,59.2,58.0,55.8,56.3,55.8,51.2,94,93,80,29.75,27.26,0,0,3,0.00
2012-5-4,58.0,58.0,58.0,56.3,56.3,56.3,94,94,94,28.47,28.47,0,0,0,0.00
2012-5-5,58.0,58.0,58.0,56.3,56.3,56.3,94,94,94,28.47,28.47,0,0,0,0.00
2012-5-6,58.0,58.0,58.0,56.3,56.3,56.3,94,94,94,28.47,28.47,0,0,0,0.00
2012-5-7,67.5,57.2,45.6,56.3,49.8,42.6,95,78,49,30.57,24.67,10,1,13,0.00
2012-5-8,61.5,49.5,42.3,48.9,43.5,39.0,93,81,48,30.59,27.29,5,0,12,0.27
2012-5-9,61.3,50.7,41.6,42.6,36.0,27.1,92,61,29,31.42,26.75,8,1,14,0.00
2012-5-10,70.0,53.9,34.5,42.8,36.4,28.1,92,55,32,30.03,25.84,6,1,12,0.00
2012-5-11,73.1,58.5,45.7,56.5,46.8,38.3,86,66,49,30.48,26.12,7,1,15,0.00
2012-5-12,65.7,55.8,45.5,45.9,36.9,29.2,86,53,26,31.05,25.16,5,1,9,0.00
2012-5-13,71.1,56.9,40.4,41.2,37.0,31.6,88,51,27,30.25,28.47,10,1,14,0.00
2012-5-14,80.5,63.8,44.9,51.0,44.3,38.0,78,52,29,32.12,23.62,12,1,20,0.00
2012-5-15,61.4,59.0,55.3,48.3,46.2,44.5,70,63,54,29.57,26.07,3,0,10,0.00
2012-5-21,64.1,56.3,46.0,41.5,39.8,37.3,83,56,37,30.64,29.08,3,0,4,0.00
2012-5-22,45.5,44.6,44.2,40.7,38.5,37.2,83,79,77,30.82,30.61,0,0,0,0.00
2012-5-25,67.5,59.6,49.4,50.1,47.8,43.9,94,67,46,30.51,27.74,7,1,11,0.00
2012-5-26,66.2,56.8,48.0,56.2,51.8,45.5,94,84,59,30.90,27.83,3,0,5,0.18
2012-5-27,75.8,65.9,55.7,69.1,62.5,54.0,96,89,77,30.72,25.57,6,1,7,0.84
2012-5-28,77.2,69.2,56.7,66.4,61.8,54.5,93,78,58,28.77,21.52,11,1,13,0.11
2012-5-29,60.4,54.7,46.8,54.7,48.3,44.6,96,80,60,29.53,21.72,11,1,15,0.05
2012-5-30,50.8,46.4,39.2,45.2,40.7,36.2,93,81,64,32.10,26.85,3,0,9,0.00
2012-5-31,60.0,48.6,38.7,43.3,39.1,35.3,93,72,43,30.81,26.99,4,0,6,0.00
2012-6-1,65.8,53.2,38.6,44.5,40.5,36.5,94,66,38,32.08,27.82,4,0,8,0.00
2012-6-2,70.6,57.8,41.8,46.0,42.3,37.6,88,60,35,32.42,25.95,13,1,18,0.00
2012-6-3,74.2,62.1,48.4,55.0,48.4,43.8,86,63,38,32.42,26.49,5,0,11,0.00
2012-6-4,72.4,62.1,55.4,63.8,56.0,51.3,94,81,57,29.83,24.74,2,0,4,0.07
2012-6-5,69.7,59.6,53.6,60.2,55.0,51.9,95,86,58,30.75,25.31,4,0,6,0.06
2012-6-6,71.5,60.3,47.2,55.8,51.4,45.3,95,75,43,30.82,26.88,2,0,6,0.01
2012-6-7,74.8,63.7,51.8,61.5,56.3,49.8,94,78,53,30.81,25.75,6,0,7,0.00
2012-6-8,73.6,65.4,57.5,68.4,61.4,54.3,95,87,75,30.67,29.57,9,0,11,0.34
2012-6-9,82.3,71.8,62.8,66.9,61.8,57.6,87,72,52,31.51,24.68,5,0,9,0.00
2012-6-10,83.2,73.7,64.7,66.6,60.9,56.2,80,65,47,31.09,25.46,4,1,15,0.00
2012-6-11,78.8,71.7,57.9,67.7,59.8,43.8,87,67,46,30.24,27.17,16,1,21,0.00
2012-6-12,61.5,55.0,47.3,44.9,42.4,39.1,85,64,44,30.84,26.83,12,1,17,0.00
2012-6-13,70.5,57.7,42.5,55.2,47.1,38.7,92,70,46,30.88,25.74,5,0,11,0.00
2012-6-14,62.5,56.7,53.4,57.9,51.1,44.2,94,82,64,31.60,28.12,12,1,17,0.66
2012-6-16,68.0,66.5,60.0,66.0,64.6,58.0,95,94,92,28.85,28.85,6,0,12,0.30
2012-6-17,73.0,63.1,53.9,61.6,57.1,52.5,96,82,57,31.27,24.71,7,0,13,0.00
2012-6-18,75.4,67.5,58.6,72.9,65.6,56.7,96,94,76,31.27,23.49,6,0,9,0.85
2012-6-19,78.8,70.3,63.9,74.1,67.7,62.7,96,92,78,32.13,28.05,4,0,7,0.35
2012-6-20,82.2,74.5,63.7,74.2,69.2,62.2,95,84,73,32.27,31.12,14,1,21,1.14
2012-6-21,69.6,64.1,57.7,62.7,58.3,53.3,96,82,59,31.32,26.84,7,1,15,0.02
2012-6-22,69.0,61.3,53.1,60.8,56.1,50.9,94,84,60,30.66,28.12,3,0,7,0.03
2012-6-23,67.7,61.6,53.7,63.5,59.1,51.7,95,91,78,30.70,25.56,2,0,6,0.09
2012-6-24,71.1,64.2,51.1,64.5,58.0,47.0,96,82,55,25.56,19.57,4,0,7,0.30
2012-6-25,70.7,59.8,46.8,56.7,49.6,44.3,94,71,47,31.33,19.57,4,0,5,0.00
2012-6-26,73.9,63.5,51.3,59.7,54.6,49.2,93,75,49,31.33,25.36,5,0,8,0.00
2012-6-27,82.2,71.7,61.4,70.1,62.9,54.1,91,74,61,31.33,19.39,6,0,9,0.00
2012-6-28,78.1,71.4,65.0,70.3,63.7,57.7,95,78,51,31.76,19.39,9,0,10,0.00
2012-6-29,80.4,69.6,58.0,65.5,59.9,54.3,89,73,50,32.30,29.57,9,0,13,0.00
2012-6-30,79.3,69.0,59.1,62.4,58.9,55.4,92,73,45,31.52,21.81,5,0,11,0.00
2012-7-1,81.6,70.3,58.2,69.1,62.6,55.9,93,78,55,31.84,21.81,4,0,5,0.00
2012-7-2,85.0,74.5,64.3,77.7,69.7,61.0,95,85,73,32.21,31.83,3,0,7,0.24
2012-7-3,83.1,72.9,64.6,75.1,69.2,63.1,96,89,69,32.48,31.25,6,0,13,1.64
2012-7-4,86.2,76.2,68.8,80.6,72.5,65.5,96,89,70,32.48,21.17,6,0,11,0.00
2012-7-5,85.7,75.9,66.9,74.8,69.2,64.1,94,81,57,30.60,20.39,3,0,5,0.00
2012-7-6,82.0,71.1,60.3,76.6,66.5,57.8,95,86,70,31.76,21.83,6,0,12,0.38
2012-7-7,65.0,63.8,62.5,63.5,62.2,60.8,95,95,94,25.62,25.62,3,0,4,0.25
2012-7-25,75.1,71.1,62.3,72.0,69.1,60.8,96,94,87,32.47,26.93,5,0,7,0.61
2012-7-26,74.6,68.5,63.1,68.2,65.5,61.0,96,90,77,26.93,21.99,5,0,6,0.30
2012-7-27,71.3,64.9,58.7,63.2,60.6,55.8,95,87,68,31.70,21.99,4,0,8,0.09
2012-7-28,73.5,63.8,52.7,61.0,56.0,50.8,96,78,46,31.70,21.63,1,0,5,0.00
2012-7-29,77.0,67.8,59.0,68.5,62.9,56.8,95,85,65,30.38,25.20,4,0,6,0.00
2012-7-30,79.9,70.5,62.4,71.2,64.9,60.7,95,83,61,32.35,25.49,11,0,14,0.00
2012-7-31,75.8,67.1,58.5,62.1,59.1,54.1,93,77,53,32.35,32.35,4,0,9,0.00
2012-8-1,58.6,57.0,56.2,55.4,54.1,53.6,92,90,87,32.35,21.48,0,0,0,0.00
2012-8-16,65.1,65.1,64.9,61.5,61.0,60.4,88,87,85,29.70,29.68,1,0,7,0.00
2012-8-17,65.4,57.7,48.3,48.5,46.1,42.1,92,67,44,30.06,29.99,6,0,9,0.04
2012-8-18,70.5,56.2,46.3,56.8,50.4,44.0,95,83,51,30.06,29.95,7,0,9,0.46
2012-8-19,66.3,57.2,48.3,56.4,50.0,42.5,96,79,43,30.04,29.98,5,0,8,0.00
2012-8-20,68.3,56.1,45.1,54.1,48.3,42.6,92,77,51,30.05,29.99,5,0,9,0.00
2012-8-21,73.2,60.4,49.2,58.7,51.5,46.6,92,75,46,30.09,30.03,5,0,11,0.00
2012-8-22,78.4,64.3,50.6,59.6,53.9,47.8,91,71,45,30.06,29.98,4,0,10,0.00
2012-8-23,71.3,66.0,59.3,66.3,62.1,55.3,93,87,78,30.03,29.92,1,0,4,0.02
2012-8-24,82.1,72.3,65.7,69.8,64.4,59.9,90,77,64,29.93,29.86,7,1,13,0.01
2012-8-25,83.7,72.1,61.6,66.4,60.9,56.9,86,70,42,29.99,29.92,4,0,8,0.00
2012-8-26,76.2,68.1,61.9,68.9,63.2,57.6,95,85,63,30.01,29.92,4,0,7,0.06
2012-8-27,76.2,64.8,54.4,60.1,56.3,51.8,93,76,51,30.14,30.00,5,0,10,0.01
2012-8-28,75.6,63.7,53.9,59.4,55.7,51.8,94,77,48,30.20,30.07,2,0,7,0.00
2012-8-29,82.8,68.2,55.1,67.1,61.0,53.1,94,79,56,30.10,29.91,6,0,8,0.29
2012-8-30,88.3,76.1,67.8,66.9,64.6,62.5,84,70,46,29.91,29.73,9,1,15,0.00
2012-8-31,77.6,69.2,57.6,64.7,56.0,48.6,87,65,43,30.17,29.86,3,0,7,0.00
2012-9-1,76.6,63.5,50.5,55.7,52.2,48.0,93,69,44,30.24,30.10,4,0,5,0.00
2012-9-2,79.4,65.7,51.8,62.5,56.5,49.3,94,74,46,30.12,29.95,6,0,8,0.00
2012-9-3,81.5,70.9,62.5,72.2,63.5,55.4,93,78,62,29.96,29.85,6,0,8,0.05
2012-9-4,81.1,70.2,61.4,69.2,65.1,59.5,96,85,62,29.91,29.75,5,0,8,0.00
2012-9-5,68.2,63.3,58.4,61.7,57.1,54.1,91,80,62,29.87,29.76,6,0,11,0.04
2012-9-6,73.3,62.1,50.8,55.5,51.4,48.0,91,71,41,29.97,29.87,6,0,13,0.00
2012-9-7,62.4,56.4,50.4,55.4,52.2,47.7,95,86,64,29.96,29.87,4,0,10,0.17
2012-9-8,62.3,53.6,49.5,54.0,50.1,46.7,94,88,64,29.97,29.81,6,0,11,0.21
2012-9-9,63.6,55.9,48.6,52.3,49.2,45.9,95,80,53,30.17,29.97,4,0,9,0.02
2012-9-10,72.6,58.3,44.5,54.5,49.6,42.4,94,75,47,30.18,29.97,8,0,10,0.00
2012-9-11,81.7,68.5,57.7,60.5,55.1,50.4,79,64,43,30.00,29.83,7,1,13,0.00
2012-9-12,69.9,59.6,50.1,58.5,50.5,43.6,93,73,51,30.23,29.88,6,0,8,0.05
2012-9-13,63.4,53.6,45.1,49.9,43.4,35.3,93,72,37,30.34,30.22,6,0,12,0.00
2012-9-14,63.2,53.0,44.6,45.2,41.9,39.2,86,68,46,30.37,30.33,5,0,9,0.00
2012-9-15,72.4,56.4,42.3,52.4,46.5,39.9,92,72,45,30.37,30.04,4,0,8,0.00
2012-9-16,75.6,63.7,52.3,57.7,51.5,45.3,81,66,41,30.05,29.86,7,0,12,0.00
2012-9-17,63.0,52.2,42.2,56.6,48.2,39.7,94,87,67,29.96,29.84,2,0,6,0.38
2012-9-18,47.8,41.0,34.4,40.0,36.2,31.3,95,84,56,30.05,29.94,8,0,13,0.01
2012-9-19,52.7,44.1,32.0,50.6,40.3,29.9,94,87,65,30.02,29.68,5,0,17,0.29
2012-9-20,52.3,46.3,40.8,47.5,44.0,38.9,96,92,78,29.91,29.77,9,0,12,0.17
2012-9-21,52.6,44.4,37.7,43.4,40.0,35.0,95,85,61,29.88,29.80,6,0,12,0.13
2012-9-22,49.0,42.7,38.0,40.5,36.2,31.5,93,79,54,30.20,29.79,7,1,13,0.02
2012-9-23,50.3,42.0,35.4,36.6,34.8,30.8,91,77,55,30.27,30.18,5,0,10,0.00
2012-9-24,66.6,49.4,34.8,44.2,36.9,30.3,85,65,38,30.18,29.71,11,1,18,0.00
2012-9-25,57.4,47.2,38.3,42.5,39.5,34.7,92,76,51,30.02,29.85,2,0,8,0.00
2012-9-26,53.0,42.6,32.3,41.5,36.0,30.0,93,79,53,30.30,30.01,5,0,8,0.00
2012-9-27,58.5,44.4,31.9,43.7,36.7,29.6,95,77,47,30.39,30.25,5,0,9,0.00
2012-9-28,66.3,49.2,35.5,43.9,38.8,33.1,93,71,37,30.28,30.16,4,0,10,0.00
2012-9-29,66.4,52.4,40.2,46.5,40.6,37.0,93,68,34,30.16,30.08,3,0,8,0.00
2012-9-30,61.4,48.6,38.2,44.8,40.7,35.8,95,76,48,30.11,29.99,2,0,3,0.00
2012-10-1,68.8,54.5,43.3,52.0,45.9,40.1,89,74,46,29.98,29.85,5,0,9,0.00
2012-10-2,62.1,51.8,43.3,49.1,40.3,33.4,94,68,35,30.01,29.93,2,0,4,0.00
2012-10-3,68.0,54.2,42.6,52.9,46.1,40.4,94,76,49,30.03,29.95,5,0,8,0.00
2012-10-4,60.6,50.8,39.9,49.4,41.1,29.2,89,70,50,30.00,29.83,16,1,20,0.00
2012-10-5,39.8,38.3,37.4,29.4,28.3,26.8,69,67,65,30.00,29.97,11,2,18,0.00
2012-10-15,50.6,42.4,36.7,38.6,34.9,32.4,87,75,56,29.99,29.89,4,0,9,0.00
2012-10-16,57.3,48.0,41.6,47.8,42.7,36.5,92,82,67,29.92,29.51,5,0,10,0.02
2012-10-17,65.8,51.8,43.1,54.0,47.9,41.2,95,87,58,29.51,29.26,6,0,8,0.18
2012-10-18,49.3,46.0,42.1,47.5,44.1,40.2,95,93,86,29.47,29.15,3,0,6,0.35
2012-10-19,47.2,42.9,40.0,43.0,40.0,38.1,94,90,80,29.72,29.47,7,0,8,0.02
2012-10-20,50.2,43.7,36.9,42.5,40.1,35.1,93,87,72,29.92,29.71,4,0,5,0.00
2012-10-21,57.9,44.6,33.2,46.5,39.6,31.7,95,84,62,30.03,29.92,3,0,8,0.00
2012-10-22,61.6,51.9,42.1,48.7,45.0,40.2,94,78,61,30.08,30.00,7,1,9,0.01
2012-10-23,56.7,52.0,47.9,55.6,49.5,44.3,96,91,81,30.03,29.86,4,0,7,0.00
2012-10-24,64.7,60.8,56.7,63.2,59.4,55.6,96,95,93,29.90,29.67,4,0,13,0.00
2012-10-25,62.1,47.2,33.0,59.9,45.3,29.5,96,93,86,30.02,29.49,10,1,21,1.26
2012-10-26,38.0,33.4,28.9,29.7,26.7,22.7,90,77,64,30.40,30.02,12,1,16,0.00
2012-10-27,38.3,31.6,26.2,25.4,22.2,19.4,87,69,48,30.43,30.36,5,0,13,0.00
2012-10-28,42.9,30.3,22.4,26.4,22.6,20.2,92,75,44,30.48,30.41,3,0,9,0.00
2012-10-29,44.1,32.3,22.3,30.5,24.6,19.8,93,75,48,30.48,30.33,4,0,7,0.00
2012-10-30,38.3,33.4,30.5,28.3,24.8,22.6,86,71,55,30.33,30.03,16,4,18,0.00
2012-10-31,40.7,33.0,28.1,28.8,23.4,17.0,83,69,42,30.03,29.92,8,2,12,0.00
2012-11-1,38.8,35.1,29.1,32.7,27.6,18.1,88,74,57,30.04,29.90,11,1,11,0.00
2012-11-2,37.3,31.2,25.1,25.9,22.9,20.6,85,71,58,30.29,30.05,6,1,11,0.00
2012-11-3,36.3,28.6,23.1,25.8,22.9,19.2,92,79,61,30.36,30.29,3,0,4,0.00
2012-11-4,34.2,25.1,18.4,26.3,20.8,15.7,92,84,67,30.38,30.31,4,0,5,0.00
2012-11-5,32.6,24.7,17.2,25.4,20.8,14.5,92,85,72,30.36,30.15,3,0,5,0.00
2012-11-6,34.4,32.2,26.9,32.0,29.5,24.1,94,90,84,30.15,29.88,5,0,8,0.03
2012-11-7,38.1,34.2,30.8,34.8,32.1,29.3,94,92,86,30.18,30.01,4,0,5,0.02
2012-11-8,46.7,37.3,33.4,37.5,33.4,31.1,93,86,68,30.19,30.01,7,0,13,0.00
2012-11-9,42.6,39.5,35.9,37.7,35.4,31.2,91,85,79,30.19,30.12,7,1,8,0.00
2012-11-10,52.2,41.3,34.4,51.1,39.4,30.8,96,93,83,30.18,29.72,7,1,9,0.10
2012-11-11,56.5,47.8,27.9,53.0,44.9,25.1,96,90,79,29.82,29.61,9,1,15,0.89
2012-11-12,27.3,21.9,19.8,24.2,16.9,13.8,88,81,72,30.30,29.82,9,2,16,0.00
2012-11-13,32.8,25.2,19.9,23.0,18.9,15.6,84,77,61,30.49,30.30,7,1,14,0.00
2012-11-14,39.9,32.8,27.8,31.1,27.0,22.4,88,79,67,30.48,30.31,3,0,6,0.01
2012-11-15,48.4,37.2,26.3,35.8,30.0,21.5,88,76,58,30.47,30.26,7,0,14,0.00
2012-11-16,38.2,28.9,20.4,30.0,23.3,17.7,91,80,58,30.60,30.47,2,0,4,0.00
2012-11-17,46.7,38.2,33.0,38.1,34.1,30.1,92,85,70,30.53,30.42,4,0,9,0.00
2012-11-18,52.1,41.7,33.1,35.8,32.9,29.7,89,72,51,30.42,30.27,5,0,10,0.00
2012-11-19,54.7,44.0,36.6,41.0,36.2,30.9,85,74,58,30.28,30.11,4,0,11,0.00
2012-11-20,50.5,38.1,31.1,41.2,34.4,29.3,94,87,68,30.19,30.10,2,0,4,0.00
2012-11-21,51.2,40.3,29.9,41.1,36.3,28.1,95,86,68,30.18,29.90,5,0,10,0.00
2012-11-22,58.8,48.1,29.2,44.5,40.3,25.0,89,75,58,29.90,29.60,15,2,22,0.00
2012-11-23,29.2,23.3,19.7,24.9,18.7,14.3,90,82,74,30.29,29.70,12,3,23,0.00
2012-11-24,23.3,21.0,18.6,18.5,14.4,12.4,88,75,66,30.31,29.95,6,0,10,0.00
2012-11-25,25.5,22.9,20.9,21.1,19.2,16.7,89,85,80,30.13,29.87,11,1,16,0.00
2012-11-26,20.8,13.3,4.2,17.8,8.1,0.2,92,80,69,30.44,30.13,7,0,10,0.00
2012-11-27,29.4,19.0,4.0,21.3,13.0,0.0,88,78,57,30.43,30.20,6,1,15,0.00
2012-11-28,25.2,22.1,19.4,19.8,16.1,12.5,88,78,65,30.38,30.24,6,1,14,0.00
2012-11-29,32.1,23.9,13.7,26.0,20.2,10.8,91,86,78,30.33,30.22,6,1,9,0.03
2012-11-30,29.6,25.7,22.5,27.8,22.8,15.8,93,89,75,30.36,30.26,7,1,10,0.00
2012-12-1,36.6,34.0,29.5,35.3,32.5,27.7,100,94,93,30.27,29.85,3,0,8,0.20
2012-12-2,37.0,34.9,33.1,35.7,33.5,31.8,95,95,93,30.08,29.86,5,0,12,0.09
2012-12-3,53.4,43.7,33.9,52.3,42.1,32.6,100,94,86,30.03,29.63,9,1,17,0.02
2012-12-4,37.5,28.9,19.7,34.0,21.2,11.5,88,73,53,30.40,29.83,10,2,21,0.00
2012-12-5,28.9,23.2,16.4,22.7,16.9,12.8,88,77,66,30.52,30.18,3,0,8,0.00
2012-12-6,35.3,32.6,28.8,33.8,29.1,22.7,94,87,77,30.19,29.83,7,1,15,0.06
2012-12-7,28.3,26.0,24.2,25.5,21.6,19.9,91,83,77,30.12,29.96,4,0,7,0.00
2012-12-8,29.0,22.4,16.4,21.4,18.2,13.7,92,84,69,30.25,30.09,2,0,3,0.00
2012-12-9,27.3,24.4,18.2,24.1,21.3,15.5,92,88,83,30.29,29.89,8,2,8,0.00
2012-12-10,26.7,23.6,20.0,22.4,20.4,16.9,92,87,78,29.94,29.87,3,0,6,0.00
2012-12-11,20.7,17.5,13.8,18.0,13.6,9.6,89,85,79,30.11,29.87,9,1,13,0.00
2012-12-12,34.5,23.6,9.5,27.5,18.2,6.2,89,80,73,30.23,30.07,7,0,12,0.00
2012-12-13,36.2,30.4,23.9,26.7,22.9,19.1,90,74,60,30.20,30.05,5,0,11,0.01
2012-12-14,33.0,28.7,25.4,27.5,25.4,22.2,90,87,78,30.28,30.11,6,0,9,0.00
2012-12-15,35.2,33.4,30.1,33.1,31.6,27.5,94,93,90,30.11,29.59,7,1,11,0.01
2012-12-16,34.4,32.8,28.6,33.1,31.4,26.8,95,94,93,29.72,29.57,7,0,12,0.04
2012-12-17,28.6,24.3,22.8,26.7,21.1,19.5,93,88,84,29.80,29.72,7,0,12,0.00
2012-12-18,26.8,24.1,22.1,22.3,20.5,18.4,95,86,82,29.90,29.77,3,0,6,0.00
2012-12-19,27.7,23.9,17.6,25.5,21.5,14.9,92,90,88,30.12,29.90,2,0,5,0.00
2012-12-20,30.7,27.3,25.0,28.7,25.1,22.9,93,91,86,30.07,29.66,11,3,17,0.00
2012-12-21,27.0,21.4,11.8,23.4,17.4,8.0,88,84,77,30.25,29.77,12,3,19,0.00
2012-12-22,28.2,14.5,2.3,16.1,8.6,-1.4,87,78,59,30.24,30.03,4,0,9,0.00
2012-12-23,20.2,16.4,10.6,17.2,11.5,6.8,88,81,71,30.17,30.07,8,1,10,0.00
2012-12-24,20.7,14.8,9.5,16.3,10.4,4.9,88,83,77,30.29,30.09,5,0,7,0.00
2012-12-25,16.9,9.3,-2.4,10.0,4.9,-6.5,92,82,73,30.54,30.29,3,0,5,0.00
2012-12-26,20.4,10.7,-3.2,14.6,6.8,-7.3,89,84,75,30.51,30.36,3,0,5,0.00
2012-12-27,21.4,17.9,13.3,15.4,12.5,9.5,87,79,70,30.38,30.26,6,1,8,0.00
2012-12-28,22.1,18.7,13.3,18.5,15.3,9.6,95,86,79,30.27,30.06,5,0,6,0.00
2012-12-29,22.8,19.1,15.3,18.9,15.5,11.6,98,86,80,30.18,30.05,6,0,9,0.00
2012-12-30,20.2,14.8,10.5,15.1,10.1,6.7,86,81,74,30.27,29.98,7,0,9,0.00
2012-12-31,20.6,12.2,-1.3,17.0,6.9,-5.3,86,79,69,30.26,29.97,9,1,14,0.00
2013-1-1,12.7,5.8,-3.9,7.8,0.1,-8.0,88,77,61,30.33,30.17,8,1,13,0.00